Time;durP1;ratioP1;P1;durP2;ratioP2;P2;SDS_P1;SDS_P2;PMS_P1;PMS_P2;Temp;Humidity;BMP_temperature;BMP_pressure;BME280_temperature;BME280_humidity;BME280_pressure;Samples;Min_cycle;Max_cycle;Signal;HPM_P1;HPM_P2
2022/10/26 00:00:27;;;;;;;12.23;6.72;;;;;;;10.59;98.73;101312.06;5094989;28;20051;-54
2022/10/26 00:02:54;;;;;;;11.45;6.53;;;;;;;10.58;98.57;101310.38;5094509;28;20064;-51
2022/10/26 00:05:20;;;;;;;8.50;5.57;;;;;;;10.60;98.49;101300.50;5095579;28;20420;-54
2022/10/26 00:07:46;;;;;;;19.00;6.85;;;;;;;10.60;98.68;101303.97;5094511;28;20028;-54
2022/10/26 00:10:11;;;;;;;9.73;5.95;;;;;;;10.61;98.77;101299.50;5094537;28;20031;-54
2022/10/26 00:12:36;;;;;;;13.90;6.00;;;;;;;10.61;98.99;101296.84;5095216;28;20058;-53
2022/10/26 00:15:02;;;;;;;11.38;6.15;;;;;;;10.60;98.80;101290.69;5094313;28;20046;-54
2022/10/26 00:17:27;;;;;;;9.88;5.75;;;;;;;10.62;99.12;101287.94;5094156;28;20470;-54
2022/10/26 00:19:53;;;;;;;10.00;5.77;;;;;;;10.62;99.14;101280.81;5095167;28;20024;-54
2022/10/26 00:22:19;;;;;;;7.95;5.90;;;;;;;10.63;99.05;101285.19;5095041;28;20278;-54
2022/10/26 00:24:44;;;;;;;10.98;6.10;;;;;;;10.64;99.26;101278.06;5076442;28;20051;-53
2022/10/26 00:27:09;;;;;;;10.15;6.13;;;;;;;10.66;99.21;101278.81;5094913;28;20028;-53
2022/10/26 00:29:34;;;;;;;14.65;6.70;;;;;;;10.66;99.31;101274.34;5093947;28;20028;-54
2022/10/26 00:32:00;;;;;;;15.93;6.78;;;;;;;10.68;99.37;101258.31;5094755;28;20024;-54
2022/10/26 00:34:25;;;;;;;9.27;5.75;;;;;;;10.69;99.34;101263.50;5063581;28;20044;-53
2022/10/26 00:36:50;;;;;;;10.07;6.07;;;;;;;10.64;99.02;101256.81;5074653;28;20028;-54
2022/10/26 00:39:15;;;;;;;12.05;5.65;;;;;;;10.70;99.25;101273.16;5074581;28;20029;-54
2022/10/26 00:41:41;;;;;;;9.20;6.00;;;;;;;10.72;99.25;101284.56;5074908;28;20079;-54
2022/10/26 00:44:55;;;;;;;11.98;6.28;;;;;;;10.74;99.31;101274.66;5094525;28;20024;-54
2022/10/26 00:49:54;;;;;;;12.77;5.80;;;;;;;10.73;99.26;101274.75;5123155;22;20399;-53
2022/10/26 00:52:20;;;;;;;;;;;;;;;10.82;98.16;101276.75;5076966;28;20036;-54
2022/10/26 00:54:45;;;;;;;10.07;6.00;;;;;;;10.79;99.28;101269.03;5093859;28;19916;-53
2022/10/26 00:57:14;;;;;;;11.27;6.03;;;;;;;10.81;99.18;101274.19;5088292;28;20035;-53
2022/10/26 00:59:40;;;;;;;11.75;5.55;;;;;;;10.81;98.96;101267.09;5089933;28;20035;-52
2022/10/26 01:02:05;;;;;;;9.48;5.65;;;;;;;10.81;99.42;101261.78;5087041;28;20373;-52
2022/10/26 01:04:32;;;;;;;11.40;5.80;;;;;;;10.83;99.03;101251.88;5074016;28;20020;-53
2022/10/26 01:07:00;;;;;;;7.57;5.50;;;;;;;10.86;99.23;101258.81;5089871;28;20024;-54
2022/10/26 01:09:25;;;;;;;11.52;6.30;;;;;;;10.86;99.11;101250.84;5094186;28;20435;-53
2022/10/26 01:11:51;;;;;;;13.88;5.90;;;;;;;10.87;99.29;101255.19;5094321;28;20107;-54
2022/10/26 01:14:18;;;;;;;10.63;5.40;;;;;;;10.87;99.44;101253.34;5093524;28;20016;-53
2022/10/26 01:17:24;;;;;;;10.73;5.47;;;;;;;10.91;99.42;101254.84;5094191;28;20078;-53
2022/10/26 01:20:17;;;;;;;11.30;5.82;;;;;;;10.95;99.15;101251.97;5093977;28;20536;-53
2022/10/26 01:23:04;;;;;;;8.77;5.40;;;;;;;10.95;98.93;101251.97;5087921;28;20108;-53
2022/10/26 01:26:01;;;;;;;9.35;5.65;;;;;;;10.97;98.94;101237.59;5073469;28;20036;-54
2022/10/26 01:28:38;;;;;;;10.15;5.85;;;;;;;10.98;98.87;101238.47;5092862;28;20023;-53
2022/10/26 01:31:07;;;;;;;8.93;5.50;;;;;;;10.98;98.81;101236.66;5094197;28;20511;-54
2022/10/26 01:33:40;;;;;;;8.20;5.95;;;;;;;11.00;98.95;101236.56;5093596;28;20077;-53
2022/10/26 01:36:14;;;;;;;13.82;5.82;;;;;;;11.01;98.77;101232.94;5093227;28;20024;-54
2022/10/26 01:38:54;;;;;;;12.90;5.80;;;;;;;11.01;98.54;101233.78;5093101;28;20027;-53
2022/10/26 01:41:23;;;;;;;12.38;6.45;;;;;;;11.01;98.63;101230.28;5093706;28;20463;-54
2022/10/26 01:44:03;;;;;;;9.65;5.75;;;;;;;11.03;98.71;101226.53;5092767;28;20028;-54
2022/10/26 01:46:33;;;;;;;12.93;5.60;;;;;;;11.03;98.64;101229.19;5093611;28;20505;-55
2022/10/26 01:49:05;;;;;;;11.00;6.18;;;;;;;11.02;98.68;101229.31;5083558;28;20045;-54
2022/10/26 01:51:31;;;;;;;10.93;6.22;;;;;;;11.01;98.28;101223.16;5072734;28;20095;-51
2022/10/26 01:53:57;;;;;;;15.15;6.45;;;;;;;11.02;98.30;101226.66;5073146;28;20036;-53
2022/10/26 01:56:29;;;;;;;12.35;6.25;;;;;;;11.03;98.19;101225.69;5073068;28;20040;-54
2022/10/26 01:59:00;;;;;;;10.20;5.97;;;;;;;11.03;98.30;101221.22;5072907;28;20390;-54
2022/10/26 02:01:43;;;;;;;9.25;6.55;;;;;;;11.03;98.52;101228.34;5072550;28;20028;-53
2022/10/26 02:04:37;;;;;;;8.05;6.60;;;;;;;11.04;98.38;101217.63;5073274;28;20042;-53
2022/10/26 02:07:23;;;;;;;13.32;6.78;;;;;;;11.03;98.17;101207.94;5065664;28;20037;-54
2022/10/26 02:10:02;;;;;;;12.98;6.47;;;;;;;11.03;98.50;101202.63;5072875;28;20121;-53
2022/10/26 02:12:54;;;;;;;11.80;6.68;;;;;;;11.03;98.59;101202.63;5072803;28;20031;-52
2022/10/26 02:15:25;;;;;;;11.77;6.90;;;;;;;11.02;98.41;101198.25;5072773;28;20036;-53
2022/10/26 02:17:58;;;;;;;13.43;6.70;;;;;;;11.01;98.51;101193.91;5072751;28;20103;-52
2022/10/26 02:20:27;;;;;;;12.30;7.00;;;;;;;11.02;98.60;101192.09;5072627;28;20036;-52
2022/10/26 02:22:55;;;;;;;11.00;6.47;;;;;;;11.02;98.44;101192.94;5072727;28;20038;-53
2022/10/26 02:25:27;;;;;;;12.77;6.55;;;;;;;11.01;98.34;101185.09;5072533;28;20478;-53
2022/10/26 02:27:59;;;;;;;14.68;6.70;;;;;;;11.03;98.53;101192.00;5072546;28;20120;-53
2022/10/26 02:30:25;;;;;;;12.65;5.95;;;;;;;11.04;98.79;101187.50;5072863;28;20036;-54
2022/10/26 02:32:53;;;;;;;11.25;6.20;;;;;;;11.04;98.45;101193.69;5072636;28;20112;-53
2022/10/26 02:35:25;;;;;;;11.52;6.00;;;;;;;11.05;98.83;101187.41;5072506;28;20101;-52
2022/10/26 02:37:53;;;;;;;9.43;5.82;;;;;;;11.06;98.94;101190.94;5072052;28;20436;-52
2022/10/26 02:40:23;;;;;;;9.27;5.93;;;;;;;11.06;98.74;101186.44;5072253;28;20111;-53
2022/10/26 02:42:50;;;;;;;9.52;5.80;;;;;;;11.05;98.44;101182.09;5072694;28;20024;-53
2022/10/26 02:45:20;;;;;;;12.45;5.85;;;;;;;11.06;98.58;101183.78;5072188;28;20043;-52
2022/10/26 02:47:46;;;;;;;9.07;4.72;;;;;;;11.07;98.69;101176.66;5072645;28;20036;-54
2022/10/26 02:50:12;;;;;;;11.80;5.55;;;;;;;11.08;98.56;101175.72;5072036;28;20254;-54
2022/10/26 02:52:53;;;;;;;9.05;4.85;;;;;;;11.09;98.45;101180.03;5072442;28;20052;-53
2022/10/26 02:55:31;;;;;;;9.55;5.13;;;;;;;11.09;98.51;101175.59;5072376;28;20429;-52
2022/10/26 02:58:01;;;;;;;7.45;4.20;;;;;;;11.09;98.41;101182.69;5072239;28;20028;-54
2022/10/26 03:00:28;;;;;;;9.95;4.68;;;;;;;11.08;98.28;101178.38;5072085;28;20036;-54
2022/10/26 03:02:56;;;;;;;11.68;4.50;;;;;;;11.08;98.27;101179.19;5071934;28;20421;-54
2022/10/26 03:05:28;;;;;;;9.02;4.90;;;;;;;11.09;98.61;101172.94;5072228;28;20036;-53
2022/10/26 03:07:55;;;;;;;8.07;5.00;;;;;;;11.10;98.70;101174.63;5071929;28;20085;-53
2022/10/26 03:10:21;;;;;;;11.20;5.10;;;;;;;11.10;98.60;101179.09;5072144;28;20032;-53
2022/10/26 03:12:46;;;;;;;8.93;4.57;;;;;;;11.10;98.74;101171.97;5072700;28;20063;-55
2022/10/26 03:15:12;;;;;;;8.77;4.15;;;;;;;11.11;98.71;101167.50;5071815;28;20055;-54
2022/10/26 03:17:38;;;;;;;9.00;4.07;;;;;;;11.11;98.83;101171.00;5072235;28;20050;-54
2022/10/26 03:20:04;;;;;;;11.45;4.25;;;;;;;11.11;98.45;101168.34;5071923;28;20040;-54
2022/10/26 03:22:29;;;;;;;11.23;3.95;;;;;;;11.12;98.33;101177.16;5071845;28;20074;-53
2022/10/26 03:24:54;;;;;;;8.25;4.20;;;;;;;11.14;98.70;101174.41;5071659;28;20056;-55
2022/10/26 03:27:20;;;;;;;6.75;3.70;;;;;;;11.14;98.65;101171.75;5072232;28;20035;-53
2022/10/26 03:29:45;;;;;;;8.23;4.28;;;;;;;11.14;98.62;101166.41;5072072;28;20452;-54
2022/10/26 03:32:10;;;;;;;7.00;3.90;;;;;;;11.15;98.37;101165.47;5071564;28;20444;-51
2022/10/26 03:34:36;;;;;;;7.65;3.65;;;;;;;11.15;98.32;101165.47;5071672;28;20032;-49
2022/10/26 03:37:01;;;;;;;10.45;4.03;;;;;;;11.15;98.30;101161.00;5071950;28;20031;-54
2022/10/26 03:39:26;;;;;;;6.22;3.50;;;;;;;11.16;98.40;101168.03;5071920;28;20531;-54
2022/10/26 03:41:52;;;;;;;10.77;3.97;;;;;;;11.18;98.84;101165.25;5071758;28;20102;-52
2022/10/26 03:44:17;;;;;;;7.18;3.60;;;;;;;11.16;98.47;101168.03;5071968;28;20278;-54
2022/10/26 03:46:42;;;;;;;4.97;3.10;;;;;;;11.19;98.38;101170.44;5071929;28;20085;-54
2022/10/26 03:49:07;;;;;;;9.18;3.70;;;;;;;11.18;98.55;101159.94;5072591;28;20049;-53
2022/10/26 03:51:33;;;;;;;6.45;3.25;;;;;;;11.18;98.26;101167.91;5075287;28;20024;-54
2022/10/26 03:53:58;;;;;;;9.00;3.70;;;;;;;11.18;98.55;101159.94;5075232;28;20094;-55
2022/10/26 03:56:24;;;;;;;9.23;3.60;;;;;;;11.20;98.58;101158.00;5075242;28;20063;-54
2022/10/26 03:58:49;;;;;;;12.82;3.90;;;;;;;11.19;98.44;101157.16;5075257;28;20035;-54
2022/10/26 04:01:14;;;;;;;6.93;3.33;;;;;;;11.19;98.46;101158.94;5074791;28;20536;-54
2022/10/26 04:03:39;;;;;;;9.50;4.00;;;;;;;11.18;98.53;101158.09;5075100;28;20060;-53
2022/10/26 04:06:05;;;;;;;8.25;3.60;;;;;;;11.19;98.64;101158.94;5074820;28;20383;-53
2022/10/26 04:08:30;;;;;;;10.18;3.80;;;;;;;11.18;98.61;101160.78;5075106;28;20432;-54
2022/10/26 04:10:56;;;;;;;12.52;3.65;;;;;;;11.19;98.45;101162.47;5074820;28;20032;-53
2022/10/26 04:13:21;;;;;;;9.57;3.35;;;;;;;11.19;98.51;101170.44;5074945;28;20466;-55
2022/10/26 04:15:46;;;;;;;12.23;3.75;;;;;;;11.18;98.65;101163.44;5074693;28;20048;-53
2022/10/26 04:18:12;;;;;;;10.77;3.38;;;;;;;11.21;98.51;101163.22;5074809;28;20060;-54
2022/10/26 04:20:40;;;;;;;6.00;3.40;;;;;;;11.22;98.45;101162.22;5074450;28;20470;-51
2022/10/26 04:23:08;;;;;;;6.50;3.47;;;;;;;11.23;98.70;101163.94;5074811;28;20029;-54
2022/10/26 04:25:34;;;;;;;8.45;3.33;;;;;;;11.25;98.59;101164.66;5074406;28;20510;-54
2022/10/26 04:28:01;;;;;;;9.98;3.20;;;;;;;11.24;98.74;101155.00;5074529;28;20107;-53
2022/10/26 04:30:27;;;;;;;6.13;3.67;;;;;;;11.27;98.59;101156.56;5074531;28;20044;-54
2022/10/26 04:32:52;;;;;;;6.60;3.33;;;;;;;11.28;98.67;101150.31;5074485;28;20021;-53
2022/10/26 04:35:17;;;;;;;9.73;3.35;;;;;;;11.29;98.78;101150.19;5074268;28;20027;-54
2022/10/26 04:37:42;;;;;;;5.13;3.10;;;;;;;11.30;98.81;101148.38;5074507;28;20021;-53
2022/10/26 04:40:08;;;;;;;8.63;3.40;;;;;;;11.32;98.49;101148.25;5074432;28;20036;-52
2022/10/26 04:42:45;;;;;;;8.93;3.58;;;;;;;11.35;98.78;101148.88;5074388;28;20024;-51
2022/10/26 04:45:12;;;;;;;7.35;3.30;;;;;;;11.36;98.52;101144.38;5074414;28;20040;-53
2022/10/26 04:47:37;;;;;;;7.30;3.55;;;;;;;11.37;98.48;101148.75;5074291;28;20093;-54
2022/10/26 04:50:04;;;;;;;11.57;3.50;;;;;;;11.38;98.54;101150.47;5074358;28;20049;-53
2022/10/26 04:52:29;;;;;;;6.97;3.55;;;;;;;11.39;98.92;101152.13;5074283;28;20039;-54
2022/10/26 04:54:54;;;;;;;7.15;3.67;;;;;;;11.40;98.53;101160.00;5074160;28;20107;-54
2022/10/26 04:57:19;;;;;;;9.93;3.80;;;;;;;11.41;98.63;101159.06;5074034;28;20086;-53
2022/10/26 04:59:45;;;;;;;13.50;3.70;;;;;;;11.43;98.54;101154.47;5073933;28;20051;-54
2022/10/26 05:02:10;;;;;;;9.30;3.40;;;;;;;11.43;98.34;101158.94;5073791;28;20033;-52
2022/10/26 05:04:35;;;;;;;8.43;3.60;;;;;;;11.45;98.44;101151.69;5073957;28;20398;-54
2022/10/26 05:07:00;;;;;;;8.50;3.70;;;;;;;11.47;98.26;101163.06;5074012;28;20078;-53
2022/10/26 05:09:26;;;;;;;7.40;3.80;;;;;;;11.47;98.76;101153.28;5073397;28;20467;-53
2022/10/26 05:11:51;;;;;;;10.35;3.95;;;;;;;11.48;98.73;101159.44;5073912;28;20111;-53
2022/10/26 05:14:16;;;;;;;9.90;3.53;;;;;;;11.49;98.50;101163.81;5073775;28;20383;-54
2022/10/26 05:16:43;;;;;;;8.48;3.58;;;;;;;11.51;98.39;101163.66;5073555;28;20090;-54
2022/10/26 05:19:09;;;;;;;10.23;3.50;;;;;;;11.51;98.46;101158.34;5073773;28;20499;-53
2022/10/26 05:21:34;;;;;;;5.93;3.00;;;;;;;11.55;98.37;101162.50;5073056;28;20032;-51
2022/10/26 05:23:59;;;;;;;9.75;3.78;;;;;;;11.56;98.55;101166.84;5073586;28;20110;-54
2022/10/26 05:26:25;;;;;;;6.82;3.28;;;;;;;11.57;98.38;101166.72;5072195;28;20020;-53
2022/10/26 05:28:50;;;;;;;12.02;3.70;;;;;;;11.59;98.20;101163.94;5073456;28;20020;-54
2022/10/26 05:31:16;;;;;;;7.60;3.42;;;;;;;11.60;98.45;101169.13;5073428;28;20312;-51
2022/10/26 05:33:41;;;;;;;4.88;3.08;;;;;;;11.61;98.36;101173.50;5073070;28;20032;-53
2022/10/26 05:36:07;;;;;;;8.10;3.05;;;;;;;11.63;98.56;101168.91;5073414;28;20027;-54
2022/10/26 05:38:32;;;;;;;5.05;2.75;;;;;;;11.65;98.58;101172.31;5073478;28;20394;-53
2022/10/26 05:40:58;;;;;;;8.98;3.05;;;;;;;11.67;98.31;101164.19;5072917;28;20544;-54
2022/10/26 05:43:23;;;;;;;7.15;3.10;;;;;;;11.68;98.46;101165.91;5090445;28;20384;-53
2022/10/26 05:45:50;;;;;;;4.50;3.38;;;;;;;11.68;98.20;101168.56;5093178;28;20460;-54
2022/10/26 05:48:15;;;;;;;8.38;3.10;;;;;;;11.70;98.08;101168.47;5092667;28;20423;-54
2022/10/26 05:50:41;;;;;;;8.65;3.17;;;;;;;11.73;98.06;101170.88;5085783;28;20032;-55
2022/10/26 05:53:06;;;;;;;7.43;3.20;;;;;;;11.75;98.14;101174.28;5073135;28;20035;-54
2022/10/26 05:55:32;;;;;;;8.60;3.03;;;;;;;11.77;98.09;101177.66;5072930;28;20029;-53
2022/10/26 05:57:58;;;;;;;5.43;2.70;;;;;;;11.79;98.15;101175.72;5072810;28;20063;-52
2022/10/26 06:00:26;;;;;;;10.40;3.13;;;;;;;11.79;97.87;101173.94;5072998;28;20028;-54
2022/10/26 06:03:31;;;;;;;4.72;3.20;;;;;;;11.84;97.89;101184.22;5072797;28;20037;-53
2022/10/26 06:05:58;;;;;;;7.75;3.17;;;;;;;11.82;97.49;101183.47;5073326;28;20052;-54
2022/10/26 06:08:26;;;;;;;10.48;3.20;;;;;;;11.85;97.33;101188.56;5082627;28;20116;-52
2022/10/26 06:10:53;;;;;;;7.03;3.15;;;;;;;11.87;97.49;101194.63;5093064;28;20020;-53
2022/10/26 06:13:19;;;;;;;10.65;2.83;;;;;;;11.88;97.02;101195.47;5091769;28;20064;-51
2022/10/26 06:16:38;;;;;;;9.35;3.17;;;;;;;11.90;97.24;101196.22;5080190;28;20058;-53
2022/10/26 06:19:23;;;;;;;7.70;3.10;;;;;;;11.84;97.52;101189.56;5048138;28;20068;-53
2022/10/26 06:22:06;;;;;;;9.30;3.40;;;;;;;11.85;97.55;101192.06;5088971;28;20039;-55
2022/10/26 06:24:48;;;;;;;7.13;2.90;;;;;;;11.83;97.70;101188.69;5088324;28;20031;-54
2022/10/26 06:27:32;;;;;;;7.15;3.10;;;;;;;11.84;97.30;101187.72;5084788;28;20091;-52
2022/10/26 06:30:06;;;;;;;6.82;2.75;;;;;;;11.82;97.32;101191.47;5089811;28;20477;-52
2022/10/26 06:32:32;;;;;;;8.43;2.88;;;;;;;11.80;97.49;101194.22;5090782;28;20043;-54
2022/10/26 06:35:23;;;;;;;8.43;3.15;;;;;;;11.81;97.33;101187.97;5091808;28;20107;-53
2022/10/26 06:37:50;;;;;;;9.73;3.00;;;;;;;11.79;97.38;101183.69;5088096;28;20496;-51
2022/10/26 06:40:16;;;;;;;8.65;3.45;;;;;;;11.79;97.71;101178.38;5087508;28;20100;-55
2022/10/26 06:42:42;;;;;;;9.30;3.22;;;;;;;11.79;97.85;101179.25;5090415;28;20043;-53
2022/10/26 06:45:14;;;;;;;8.75;3.03;;;;;;;11.80;97.83;101180.94;5088510;28;20036;-52
2022/10/26 06:47:53;;;;;;;7.15;3.22;;;;;;;11.82;97.81;101178.16;5086789;28;20024;-54
2022/10/26 06:50:32;;;;;;;5.15;3.05;;;;;;;11.83;98.06;101175.38;5089696;28;20048;-51
2022/10/26 06:53:25;;;;;;;6.78;3.05;;;;;;;11.86;98.03;101182.28;5091919;28;20024;-54
2022/10/26 06:55:51;;;;;;;6.35;3.30;;;;;;;11.86;97.89;101176.97;5096571;28;20093;-52
2022/10/26 06:58:19;;;;;;;5.97;2.97;;;;;;;11.85;98.25;101170.78;5091310;28;20020;-54
2022/10/26 07:00:47;;;;;;;7.32;3.30;;;;;;;11.89;97.66;101175.88;5090348;28;20036;-53
2022/10/26 07:03:13;;;;;;;9.25;3.72;;;;;;;11.94;97.93;101171.06;5083595;28;20468;-54
2022/10/26 07:05:38;;;;;;;6.47;2.83;;;;;;;11.95;97.79;101176.28;5087911;28;20024;-54
2022/10/26 07:08:04;;;;;;;7.38;3.10;;;;;;;11.95;97.80;101184.25;5088866;28;20024;-53
2022/10/26 07:10:30;;;;;;;9.88;3.03;;;;;;;11.96;97.69;101193.94;5084966;28;20097;-54
2022/10/26 07:12:55;;;;;;;10.00;3.53;;;;;;;12.00;97.78;101202.56;5089622;28;20032;-54
2022/10/26 07:15:20;;;;;;;8.35;3.50;;;;;;;11.99;97.71;101209.69;5090582;28;20032;-52
2022/10/26 07:17:48;;;;;;;6.80;2.85;;;;;;;12.01;97.80;101206.91;5098076;28;20040;-54
2022/10/26 07:20:15;;;;;;;5.40;3.17;;;;;;;12.03;97.89;101208.47;5087482;28;20399;-53
2022/10/26 07:22:41;;;;;;;7.18;3.05;;;;;;;12.05;97.55;101207.53;5077738;28;20451;-53
2022/10/26 07:25:07;;;;;;;9.10;3.20;;;;;;;12.06;97.80;101212.72;5094766;28;20024;-53
2022/10/26 07:27:33;;;;;;;9.85;3.63;;;;;;;12.10;97.39;101218.66;5088606;28;20042;-54
2022/10/26 07:29:58;;;;;;;6.55;3.00;;;;;;;12.15;97.73;101221.81;5096720;28;20115;-54
2022/10/26 07:32:23;;;;;;;7.03;3.20;;;;;;;12.16;97.68;101226.19;5097062;28;20043;-54
2022/10/26 07:34:49;;;;;;;8.07;3.30;;;;;;;12.19;97.60;101224.13;5096359;28;20469;-52
2022/10/26 07:37:14;;;;;;;6.93;3.08;;;;;;;12.22;97.92;101220.38;5081738;28;20044;-53
2022/10/26 07:39:39;;;;;;;9.25;3.60;;;;;;;12.28;98.30;101227.06;5094790;28;20108;-54
2022/10/26 07:42:05;;;;;;;12.77;3.55;;;;;;;12.31;97.95;101222.31;5091183;28;20032;-51
2022/10/26 07:44:30;;;;;;;5.47;3.30;;;;;;;12.40;98.10;101234.91;5086954;28;20016;-51
2022/10/26 07:46:56;;;;;;;7.43;2.92;;;;;;;12.48;97.93;101244.16;5088520;28;20032;-53
2022/10/26 07:49:21;;;;;;;7.32;3.10;;;;;;;12.56;98.15;101252.38;5087609;28;20497;-53
2022/10/26 07:51:46;;;;;;;7.82;3.08;;;;;;;12.60;98.06;101256.50;5092922;28;20410;-54
2022/10/26 07:54:11;;;;;;;10.00;3.22;;;;;;;12.66;98.24;101252.50;5092198;28;20035;-55
2022/10/26 07:56:37;;;;;;;12.30;3.53;;;;;;;12.74;98.51;101264.25;5092584;28;20044;-53
2022/10/26 07:59:02;;;;;;;11.70;3.20;;;;;;;12.83;98.05;101251.16;5090912;28;20039;-53
2022/10/26 08:01:27;;;;;;;10.65;3.67;;;;;;;12.93;98.31;101255.63;5090587;28;20032;-53
2022/10/26 08:03:53;;;;;;;7.38;3.20;;;;;;;13.02;98.25;101263.84;5092426;28;20153;-53
2022/10/26 08:06:22;;;;;;;9.35;3.60;;;;;;;13.13;98.32;101261.19;5089618;28;20039;-53
2022/10/26 08:08:48;;;;;;;7.88;2.80;;;;;;;13.23;97.68;101261.28;5090691;28;20032;-53
2022/10/26 08:11:14;;;;;;;6.40;3.17;;;;;;;13.35;97.47;101275.47;5093067;28;20059;-53
2022/10/26 08:13:40;;;;;;;8.18;2.80;;;;;;;13.48;97.32;101271.66;5093060;28;20059;-53
2022/10/26 08:16:05;;;;;;;6.55;2.55;;;;;;;13.63;96.56;101266.06;5093503;28;20051;-53
2022/10/26 08:18:31;;;;;;;7.60;2.60;;;;;;;13.75;96.78;101266.84;5076554;28;20066;-53
2022/10/26 08:21:02;;;;;;;9.43;2.90;;;;;;;13.81;95.94;101266.34;5092310;28;20016;-53
2022/10/26 08:23:27;;;;;;;5.38;2.90;;;;;;;13.86;96.25;101269.47;5091834;28;20040;-54
2022/10/26 08:26:00;;;;;;;10.57;3.30;;;;;;;13.91;96.10;101277.94;5076440;28;20504;-50
2022/10/26 08:28:27;;;;;;;4.35;2.55;;;;;;;14.02;95.86;101277.91;5076398;28;20020;-50
2022/10/26 08:30:52;;;;;;;9.80;3.10;;;;;;;14.11;96.18;101276.28;5083774;28;20028;-53
2022/10/26 08:33:17;;;;;;;6.82;3.13;;;;;;;14.20;95.17;101283.47;5075633;28;20024;-54
2022/10/26 08:35:43;;;;;;;5.47;2.70;;;;;;;14.29;95.37;101286.34;5090162;28;20024;-53
2022/10/26 08:38:08;;;;;;;5.53;3.13;;;;;;;14.34;95.76;101282.31;5093877;28;20282;-52
2022/10/26 08:40:38;;;;;;;7.40;2.83;;;;;;;14.40;95.02;101281.78;5094157;28;20278;-53
2022/10/26 08:43:13;;;;;;;7.65;2.55;;;;;;;14.50;94.46;101281.00;5085572;28;20017;-52
2022/10/26 08:45:43;;;;;;;10.98;3.20;;;;;;;14.56;94.82;101292.00;5089364;28;20098;-55
2022/10/26 08:48:16;;;;;;;6.18;2.90;;;;;;;14.64;94.86;101290.53;5089730;28;20028;-48
2022/10/26 08:50:51;;;;;;;4.55;2.47;;;;;;;14.73;94.03;101287.06;5092759;28;20123;-49
2022/10/26 08:53:24;;;;;;;5.88;2.58;;;;;;;14.84;94.72;101273.59;5088854;28;20047;-51
2022/10/26 08:55:55;;;;;;;8.95;3.22;;;;;;;14.92;93.65;101262.22;5092033;28;20051;-49
2022/10/26 08:58:29;;;;;;;10.35;2.90;;;;;;;15.07;94.26;101257.31;5092442;28;20028;-49
2022/10/26 09:00:54;;;;;;;5.65;2.45;;;;;;;15.24;94.11;101266.50;5091918;28;20466;-49
2022/10/26 09:03:20;;;;;;;7.15;2.80;;;;;;;15.35;92.74;101264.59;5092360;28;20020;-51
2022/10/26 09:05:59;;;;;;;10.65;2.47;;;;;;;15.50;92.39;101265.03;5093067;28;20062;-49
2022/10/26 09:08:49;;;;;;;5.30;2.50;;;;;;;15.70;92.24;101279.28;5092238;28;20028;-50
2022/10/26 09:11:46;;;;;;;6.97;2.28;;;;;;;15.87;91.82;101287.59;5087527;28;20527;-51
2022/10/26 09:14:18;;;;;;;8.27;2.80;;;;;;;16.05;90.42;101293.97;5091569;28;20104;-52
2022/10/26 09:17:04;;;;;;;6.80;2.75;;;;;;;16.24;89.67;101302.97;5093558;28;20027;-50
2022/10/26 09:20:19;;;;;;;5.57;2.40;;;;;;;16.38;90.81;101305.19;5091062;28;20028;-49
2022/10/26 09:23:09;;;;;;;9.27;3.10;;;;;;;16.53;88.73;101312.78;5054621;28;20379;-50
2022/10/26 09:25:38;;;;;;;4.85;2.40;;;;;;;16.70;87.15;101327.25;5091736;28;20028;-48
2022/10/26 09:28:07;;;;;;;5.80;2.50;;;;;;;16.85;88.02;101328.50;5090421;28;20036;-50
2022/10/26 09:30:34;;;;;;;6.88;2.53;;;;;;;16.98;88.21;101329.03;5087777;28;20020;-52
2022/10/26 09:33:08;;;;;;;6.30;2.47;;;;;;;17.08;84.81;101336.19;5092187;28;20032;-49
2022/10/26 09:35:45;;;;;;;6.90;2.70;;;;;;;17.20;85.33;101343.91;5095907;28;20035;-50
2022/10/26 09:38:23;;;;;;;7.05;2.35;;;;;;;17.32;83.90;101343.69;5086168;28;20067;-48
2022/10/26 09:41:21;;;;;;;8.50;2.83;;;;;;;17.41;84.90;101358.09;5091090;28;20028;-49
2022/10/26 09:43:56;;;;;;;7.07;2.50;;;;;;;17.43;81.99;101348.03;5034952;28;20043;-50
2022/10/26 09:46:32;;;;;;;5.50;2.67;;;;;;;17.50;83.01;101354.47;5086317;28;20024;-49
2022/10/26 09:49:03;;;;;;;4.70;2.55;;;;;;;17.49;81.41;101350.97;5089710;28;20406;-51
2022/10/26 09:51:28;;;;;;;6.25;2.80;;;;;;;17.54;82.60;101356.72;5082269;28;20140;-49
2022/10/26 09:53:56;;;;;;;7.73;2.63;;;;;;;17.61;81.88;101354.28;5090630;28;20029;-48
2022/10/26 09:56:24;;;;;;;5.63;2.77;;;;;;;17.69;82.29;101357.06;5088789;28;20290;-49
2022/10/26 09:58:58;;;;;;;4.50;2.53;;;;;;;17.76;82.22;101363.50;5091647;28;20295;-48
2022/10/26 10:01:28;;;;;;;4.78;2.50;;;;;;;17.85;81.38;101377.88;5090542;28;20026;-52
2022/10/26 10:04:16;;;;;;;7.15;2.28;;;;;;;17.93;83.19;101371.75;5090130;28;20042;-49
2022/10/26 10:06:43;;;;;;;9.20;2.38;;;;;;;18.07;80.41;101373.94;5091664;28;20389;-49
2022/10/26 10:09:16;;;;;;;6.00;2.45;;;;;;;18.17;81.19;101376.53;5089653;28;20028;-49
2022/10/26 10:11:54;;;;;;;6.40;2.33;;;;;;;18.27;79.69;101379.97;5089771;28;20055;-50
2022/10/26 10:14:24;;;;;;;9.75;2.78;;;;;;;18.31;78.94;101378.66;5084446;28;20081;-51
2022/10/26 10:17:01;;;;;;;11.80;2.83;;;;;;;18.49;80.30;101384.03;5079188;28;20028;-50
2022/10/26 10:19:29;;;;;;;7.18;2.15;;;;;;;18.57;78.73;101399.38;5090955;28;20058;-50
2022/10/26 10:22:21;;;;;;;5.43;2.70;;;;;;;18.65;79.73;101393.22;5091061;28;20362;-50
2022/10/26 10:25:00;;;;;;;7.95;2.53;;;;;;;18.76;79.25;101401.03;5081005;28;20097;-51
2022/10/26 10:27:25;;;;;;;;;;;;;;;18.82;80.14;101418.41;5087507;28;20492;-49
2022/10/26 10:29:54;;;;;;;7.82;2.53;;;;;;;18.86;77.51;101404.50;5087645;28;19919;-49
2022/10/26 10:32:24;;;;;;;8.00;2.83;;;;;;;18.95;78.10;101416.19;5086927;28;20039;-52
2022/10/26 10:34:51;;;;;;;6.97;2.10;;;;;;;19.09;77.89;101421.97;5090913;28;20043;-49
2022/10/26 10:37:33;;;;;;;4.07;2.08;;;;;;;19.23;78.09;101424.06;5090819;28;20047;-51
2022/10/26 10:40:07;;;;;;;7.63;2.40;;;;;;;19.25;75.41;101427.41;5089520;28;20037;-51
2022/10/26 10:42:35;;;;;;;5.60;2.20;;;;;;;19.26;75.22;101429.13;5091121;28;20028;-50
2022/10/26 10:45:02;;;;;;;4.78;2.20;;;;;;;19.32;75.32;101433.88;5088218;28;20028;-51
2022/10/26 10:47:35;;;;;;;5.20;2.33;;;;;;;19.39;75.68;101434.91;5086855;28;20028;-52
2022/10/26 10:50:05;;;;;;;7.60;2.30;;;;;;;19.53;74.97;101438.84;5088951;28;20044;-52
2022/10/26 10:52:33;;;;;;;9.50;2.45;;;;;;;19.55;74.68;101446.75;5086750;28;20034;-50
2022/10/26 10:55:14;;;;;;;5.40;2.10;;;;;;;19.63;75.36;101443.25;5086667;28;20115;-47
2022/10/26 10:58:03;;;;;;;6.38;2.00;;;;;;;19.57;74.31;101451.00;5088993;28;20036;-48
2022/10/26 11:00:34;;;;;;;6.85;2.22;;;;;;;19.56;74.24;101457.38;5091763;28;20031;-52
2022/10/26 11:03:37;;;;;;;6.13;2.17;;;;;;;19.63;76.41;101460.28;5090844;28;20043;-52
2022/10/26 11:06:15;;;;;;;5.93;1.85;;;;;;;19.69;74.98;101461.50;5087103;28;20024;-52
2022/10/26 11:08:46;;;;;;;4.93;2.10;;;;;;;19.69;72.95;101461.50;5092768;28;20481;-51
2022/10/26 11:11:33;;;;;;;8.02;2.47;;;;;;;19.68;75.52;101466.00;5094608;28;20036;-48
2022/10/26 11:14:09;;;;;;;7.45;1.75;;;;;;;19.73;74.32;101463.72;5093627;28;20031;-49
2022/10/26 11:16:47;;;;;;;4.82;1.92;;;;;;;19.69;74.68;101477.66;5092271;28;20043;-48
2022/10/26 11:19:31;;;;;;;5.50;1.90;;;;;;;19.72;74.84;101488.97;5073959;28;20036;-52
2022/10/26 11:21:56;;;;;;;4.93;1.73;;;;;;;19.71;73.77;101489.13;5075054;28;20020;-48
2022/10/26 11:24:28;;;;;;;5.50;2.00;;;;;;;19.57;72.88;101495.97;5075199;28;20055;-51
2022/10/26 11:27:10;;;;;;;10.25;2.00;;;;;;;19.56;73.42;101491.56;5091213;28;20309;-49
2022/10/26 11:29:57;;;;;;;4.63;2.10;;;;;;;19.56;73.16;101491.56;5095020;28;20107;-48
2022/10/26 11:32:27;;;;;;;7.13;1.95;;;;;;;19.53;73.91;101490.03;5084982;28;20032;-47
2022/10/26 11:34:57;;;;;;;5.45;1.90;;;;;;;19.59;73.29;101489.41;5074742;28;20425;-49
2022/10/26 11:37:31;;;;;;;4.68;1.75;;;;;;;19.63;74.77;101484.53;5074563;28;20055;-50
2022/10/26 11:40:21;;;;;;;5.72;2.20;;;;;;;19.69;74.19;101480.34;5074712;28;20036;-49
2022/10/26 11:43:11;;;;;;;5.68;1.80;;;;;;;19.82;75.42;101480.78;5074558;28;20424;-49